createdAt,value
2022-08-05T00:00:19.977Z,6.90
2022-08-05T00:02:50.825Z,7.10
2022-08-05T00:06:02.632Z,6.00
2022-08-05T00:08:19.805Z,6.10
2022-08-05T00:11:00.616Z,5.80
2022-08-05T00:13:38.841Z,6.60
2022-08-05T00:16:09.258Z,5.90
2022-08-05T00:18:41.158Z,6.90
2022-08-05T00:21:09.885Z,6.50
2022-08-05T00:23:46.268Z,6.70
2022-08-05T00:26:22.002Z,7.10
2022-08-05T00:28:50.366Z,6.40
2022-08-05T00:31:54.112Z,6.30
2022-08-05T00:34:56.277Z,6.80
2022-08-05T00:37:11.071Z,7.30
2022-08-05T00:39:44.272Z,6.80
2022-08-05T00:42:36.595Z,7.40
2022-08-05T00:45:08.690Z,7.00
2022-08-05T00:47:56.249Z,7.50
2022-08-05T00:50:25.700Z,7.60
2022-08-05T00:52:55.294Z,7.10
2022-08-05T00:55:34.199Z,7.40
2022-08-05T00:58:11.586Z,6.60
2022-08-05T01:00:39.953Z,6.80
2022-08-05T01:03:08.142Z,7.20
2022-08-05T01:05:35.658Z,7.40
2022-08-05T01:08:40.697Z,7.10
2022-08-05T01:10:57.939Z,6.50
2022-08-05T01:13:58.494Z,6.50
2022-08-05T01:16:26.336Z,7.60
2022-08-05T01:18:58.886Z,7.00
2022-08-05T01:21:43.953Z,7.30
2022-08-05T01:24:54.828Z,6.70
2022-08-05T01:27:22.506Z,6.50
2022-08-05T01:29:54.898Z,7.10
2022-08-05T01:32:24.284Z,7.10
2022-08-05T01:35:01.596Z,6.90
2022-08-05T01:37:44.725Z,7.40
2022-08-05T01:40:13.256Z,7.10
2022-08-05T01:42:46.039Z,7.10
2022-08-05T01:45:16.490Z,7.40
2022-08-05T01:47:45.053Z,7.60
2022-08-05T01:50:28.764Z,7.10
2022-08-05T01:53:00.746Z,7.00
2022-08-05T01:55:29.765Z,7.10
2022-08-05T01:58:10.811Z,7.40
2022-08-05T02:00:51.728Z,7.60
2022-08-05T02:03:34.293Z,7.30
2022-08-05T02:06:33.881Z,7.60
2022-08-05T02:08:58.672Z,7.80
2022-08-05T02:11:32.763Z,7.30
2022-08-05T02:14:13.898Z,8.50
2022-08-05T02:16:52.318Z,7.30
2022-08-05T02:19:47.111Z,7.40
2022-08-05T02:22:30.097Z,7.80
2022-08-05T02:25:03.325Z,7.40
2022-08-05T02:27:58.070Z,7.40
2022-08-05T02:30:24.468Z,7.70
2022-08-05T02:32:56.700Z,7.50
2022-08-05T02:35:28.007Z,7.30
2022-08-05T02:38:02.414Z,7.50
2022-08-05T02:40:30.776Z,7.60
2022-08-05T02:42:59.252Z,7.60
2022-08-05T02:45:28.398Z,7.50
2022-08-05T02:48:11.540Z,7.80
2022-08-05T02:50:44.331Z,7.30
2022-08-05T02:53:16.106Z,7.50
2022-08-05T02:55:59.672Z,8.10
2022-08-05T02:58:28.939Z,7.40
2022-08-05T03:01:00.460Z,7.30
2022-08-05T03:03:33.868Z,7.70
2022-08-05T03:06:55.816Z,7.90
2022-08-05T03:08:52.130Z,7.80
2022-08-05T03:11:56.316Z,8.60
2022-08-05T03:14:13.465Z,8.10
2022-08-05T03:16:42.121Z,8.30
2022-08-05T03:19:16.811Z,7.70
2022-08-05T03:21:48.794Z,7.50
2022-08-05T03:24:29.657Z,7.80
2022-08-05T03:26:59.312Z,7.90
2022-08-05T03:29:45.972Z,8.10
2022-08-05T03:32:15.743Z,8.70
2022-08-05T03:34:51.201Z,7.90
2022-08-05T03:37:20.918Z,7.70
2022-08-05T03:40:01.811Z,7.60
2022-08-05T03:42:32.806Z,7.30
2022-08-05T03:45:21.116Z,8.10
2022-08-05T03:47:49.452Z,8.10
2022-08-05T03:50:16.605Z,8.50
2022-08-05T03:55:50.834Z,8.00
2022-08-05T03:56:11.630Z,7.20
2022-08-05T03:58:41.320Z,7.70
2022-08-05T04:01:11.452Z,7.90
2022-08-05T04:04:09.757Z,7.00
2022-08-05T04:06:30.863Z,7.80
2022-08-05T04:08:58.501Z,8.50
2022-08-05T04:11:50.861Z,8.00
2022-08-05T04:14:18.118Z,7.10
2022-08-05T04:16:45.960Z,8.20
2022-08-05T04:19:13.622Z,7.70
2022-08-05T04:22:09.703Z,7.70
2022-08-05T04:24:29.271Z,7.00
2022-08-05T04:26:58.275Z,7.70
2022-08-05T04:29:27.231Z,8.10
2022-08-05T04:31:56.888Z,8.30
2022-08-05T04:34:32.647Z,7.80
2022-08-05T04:37:00.857Z,7.90
2022-08-05T04:39:32.209Z,7.50
2022-08-05T04:41:59.667Z,7.90
2022-08-05T04:44:30.180Z,8.30
2022-08-05T04:47:08.771Z,7.50
2022-08-05T04:50:02.817Z,7.30
2022-08-05T04:52:27.829Z,6.70
2022-08-05T04:54:57.353Z,7.30
2022-08-05T04:57:28.662Z,7.90
2022-08-05T04:59:58.368Z,8.00
2022-08-05T05:02:36.595Z,8.10
2022-08-05T05:05:26.139Z,7.70
2022-08-05T05:08:02.000Z,7.80
2022-08-05T05:10:30.892Z,7.50
2022-08-05T05:13:03.773Z,8.20
2022-08-05T05:15:57.806Z,7.70
2022-08-05T05:18:31.384Z,6.40
2022-08-05T05:21:03.272Z,7.50
2022-08-05T05:24:01.913Z,8.00
2022-08-05T05:26:18.634Z,7.00
2022-08-05T05:28:46.037Z,7.30
2022-08-05T05:31:13.494Z,7.00
2022-08-05T05:33:58.610Z,7.70
2022-08-05T05:36:28.728Z,7.20
2022-08-05T05:38:57.752Z,7.00
2022-08-05T05:41:25.135Z,7.40
2022-08-05T05:44:36.229Z,6.80
2022-08-05T05:46:56.228Z,6.80
2022-08-05T05:49:25.402Z,6.80
2022-08-05T05:51:53.511Z,7.00
2022-08-05T05:54:20.999Z,7.20
2022-08-05T05:56:48.383Z,6.50
2022-08-05T05:59:15.737Z,7.10
2022-08-05T06:01:57.684Z,6.20
2022-08-05T06:04:25.484Z,6.50
2022-08-05T06:06:52.749Z,6.60
2022-08-05T06:09:25.858Z,6.80
2022-08-05T06:12:09.540Z,6.20
2022-08-05T06:14:37.237Z,6.60
2022-08-05T06:17:21.946Z,6.40
2022-08-05T06:19:57.114Z,6.30
2022-08-05T06:22:29.921Z,5.60
2022-08-05T06:24:58.090Z,5.70
2022-08-05T06:28:09.175Z,5.90
2022-08-05T06:30:19.987Z,5.80
2022-08-05T06:32:50.493Z,5.30
2022-08-05T06:36:02.878Z,5.10
2022-08-05T06:38:09.999Z,6.00
2022-08-05T06:40:42.327Z,6.00
2022-08-05T06:43:51.700Z,6.20
2022-08-05T06:46:03.999Z,5.90
2022-08-05T06:48:56.100Z,6.50
2022-08-05T06:51:30.029Z,5.90
2022-08-05T06:54:02.753Z,5.90
2022-08-05T06:56:33.410Z,5.80
2022-08-05T06:59:09.554Z,6.20
2022-08-05T07:01:37.361Z,5.80
2022-08-05T07:04:08.089Z,5.50
2022-08-05T07:06:35.236Z,5.30
2022-08-05T07:09:03.993Z,5.40
2022-08-05T07:11:33.122Z,5.90
2022-08-05T07:14:29.464Z,5.30
2022-08-05T07:18:01.692Z,5.10
2022-08-05T07:22:42.225Z,5.60
2022-08-05T07:25:23.028Z,5.30
2022-08-05T07:28:04.083Z,5.50
2022-08-05T07:30:39.689Z,5.50
2022-08-05T07:33:15.748Z,5.00
2022-08-05T07:36:02.711Z,5.30
2022-08-05T07:38:42.953Z,5.20
2022-08-05T07:42:07.099Z,5.20
2022-08-05T07:44:01.191Z,5.40
2022-08-05T07:46:31.507Z,5.30
2022-08-05T07:49:05.815Z,5.20
2022-08-05T07:51:37.295Z,5.30
2022-08-05T07:54:10.081Z,5.20
2022-08-05T07:57:02.087Z,4.50
2022-08-05T07:59:38.652Z,5.00
2022-08-05T08:02:16.985Z,4.90
2022-08-05T08:04:49.674Z,5.10
2022-08-05T08:07:22.509Z,5.00
2022-08-05T08:09:53.191Z,5.10
2022-08-05T08:12:37.447Z,4.80
2022-08-05T08:15:13.972Z,4.90
2022-08-05T08:17:52.772Z,4.80
2022-08-05T08:20:59.995Z,5.00
2022-08-05T08:24:03.403Z,5.00
2022-08-05T08:26:04.711Z,5.10
2022-08-05T08:28:37.059Z,4.40
2022-08-05T08:31:16.424Z,5.00
2022-08-05T08:33:46.110Z,4.30
2022-08-05T08:36:38.897Z,5.00
2022-08-05T08:39:15.344Z,4.90
2022-08-05T08:41:50.830Z,4.70
2022-08-05T08:45:24.811Z,4.10
2022-08-05T08:47:21.884Z,4.80
2022-08-05T08:50:13.020Z,4.90
2022-08-05T08:53:11.901Z,4.00
2022-08-05T08:56:02.882Z,4.70
2022-08-05T08:58:43.857Z,4.00
2022-08-05T09:01:18.227Z,4.40
2022-08-05T09:03:54.283Z,4.40
2022-08-05T09:06:29.564Z,4.40
2022-08-05T09:09:01.104Z,4.30
2022-08-05T09:11:52.457Z,4.10
2022-08-05T09:14:56.372Z,3.80
2022-08-05T09:17:42.860Z,3.90
2022-08-05T09:20:36.365Z,3.90
2022-08-05T09:23:19.093Z,3.60
2022-08-05T09:26:03.069Z,4.30
2022-08-05T09:28:33.839Z,3.90
2022-08-05T09:31:22.321Z,4.10
2022-08-05T09:34:01.892Z,3.70
2022-08-05T09:36:54.143Z,3.90
2022-08-05T09:39:39.262Z,4.20
2022-08-05T09:42:17.631Z,3.80
2022-08-05T09:44:52.890Z,3.70
2022-08-05T09:47:36.331Z,3.90
2022-08-05T09:50:18.197Z,3.60
2022-08-05T09:53:01.762Z,3.40
2022-08-05T09:55:58.062Z,3.80
2022-08-05T09:58:24.685Z,3.80
2022-08-05T10:01:13.599Z,3.40
2022-08-05T10:03:58.936Z,3.40
2022-08-05T10:06:31.056Z,3.80
2022-08-05T10:09:27.278Z,4.30
2022-08-05T10:12:28.021Z,4.00
2022-08-05T10:15:22.462Z,3.40
2022-08-05T10:18:48.188Z,3.50
2022-08-05T10:21:20.043Z,3.70
2022-08-05T10:23:58.754Z,3.20
2022-08-05T10:26:31.678Z,3.70
2022-08-05T10:29:00.266Z,3.50
2022-08-05T10:32:53.684Z,3.60
2022-08-05T10:34:15.063Z,3.30
2022-08-05T10:36:44.674Z,3.20
2022-08-05T10:39:59.366Z,3.50
2022-08-05T10:42:32.453Z,3.20
2022-08-05T10:45:21.220Z,2.90
2022-08-05T10:48:29.155Z,3.50
2022-08-05T10:51:03.340Z,3.00
2022-08-05T10:53:42.615Z,3.20
2022-08-05T10:56:34.651Z,2.60
2022-08-05T10:59:12.842Z,3.10
2022-08-05T11:02:14.156Z,3.00
2022-08-05T11:05:05.858Z,3.00
2022-08-05T11:08:02.816Z,2.70
2022-08-05T11:10:27.526Z,3.20
2022-08-05T11:12:57.384Z,2.40
2022-08-05T11:16:00.431Z,3.00
2022-08-05T11:18:32.666Z,2.60
2022-08-05T11:21:11.410Z,3.10
2022-08-05T11:24:03.784Z,2.90
2022-08-05T11:26:33.741Z,2.80
2022-08-05T11:29:13.357Z,2.90
2022-08-05T11:31:57.072Z,2.80
2022-08-05T11:34:39.675Z,2.60
2022-08-05T11:38:29.635Z,3.00
2022-08-05T11:40:02.629Z,2.70
2022-08-05T11:42:37.934Z,2.50
2022-08-05T11:45:14.606Z,2.70
2022-08-05T11:47:58.648Z,2.70
2022-08-05T11:50:26.633Z,2.10
2022-08-05T11:52:57.651Z,2.30
2022-08-05T11:55:31.953Z,2.50
2022-08-05T11:58:09.905Z,2.40
2022-08-05T12:00:41.269Z,2.40
2022-08-05T12:03:23.775Z,2.50
2022-08-05T12:06:02.932Z,2.50
2022-08-05T12:08:32.654Z,2.60
2022-08-05T12:11:03.427Z,2.40
2022-08-05T12:13:48.763Z,2.60
2022-08-05T12:16:25.476Z,2.30
2022-08-05T12:18:54.582Z,2.90
2022-08-05T12:21:32.053Z,2.60
2022-08-05T12:24:04.636Z,2.10
2022-08-05T12:26:43.910Z,2.80
2022-08-05T12:29:26.071Z,2.60
2022-08-05T12:31:58.213Z,2.90
2022-08-05T12:34:33.478Z,2.70
2022-08-05T12:37:17.427Z,2.30
2022-08-05T12:39:51.294Z,2.90
2022-08-05T12:42:20.884Z,2.40
2022-08-05T12:44:48.709Z,2.20
2022-08-05T12:47:30.624Z,2.70
2022-08-05T12:50:03.668Z,2.30
2022-08-05T12:52:39.396Z,2.70
2022-08-05T12:55:26.105Z,2.50
2022-08-05T12:58:39.017Z,2.50
2022-08-05T13:01:59.951Z,2.90
2022-08-05T13:03:41.598Z,2.80
2022-08-05T13:06:17.173Z,2.50
2022-08-05T13:08:50.705Z,2.60
2022-08-05T13:12:01.479Z,2.50
2022-08-05T13:14:24.917Z,2.60
2022-08-05T13:17:09.298Z,2.50
2022-08-05T13:19:51.950Z,2.50
2022-08-05T13:22:29.230Z,2.60
2022-08-05T13:25:05.879Z,2.50
2022-08-05T13:27:40.934Z,2.90
2022-08-05T13:30:33.618Z,2.60
2022-08-05T13:33:01.560Z,2.40
2022-08-05T13:35:31.363Z,2.60
2022-08-05T13:38:20.058Z,2.20
2022-08-05T13:40:57.755Z,2.50
2022-08-05T13:43:44.395Z,2.40
2022-08-05T13:46:13.934Z,2.80
2022-08-05T13:48:58.323Z,2.80
2022-08-05T13:51:40.360Z,2.90
2022-08-05T13:54:12.832Z,2.50
2022-08-05T13:56:51.006Z,2.30
2022-08-05T13:59:25.095Z,2.90
2022-08-05T14:01:57.754Z,2.60
2022-08-05T14:04:49.519Z,2.50
2022-08-05T14:08:00.205Z,2.90
2022-08-05T14:10:18.472Z,2.60
2022-08-05T14:12:48.701Z,2.80
2022-08-05T14:16:09.044Z,2.60
2022-08-05T14:18:04.503Z,2.80
2022-08-05T14:20:32.155Z,2.60
2022-08-05T14:23:00.222Z,2.60
2022-08-05T14:25:28.626Z,2.80
2022-08-05T14:27:58.581Z,3.00
2022-08-05T14:30:27.914Z,2.70
2022-08-05T14:32:56.772Z,2.30
2022-08-05T14:35:37.225Z,2.80
2022-08-05T14:38:31.713Z,2.60
2022-08-05T14:41:05.772Z,2.90
2022-08-05T14:44:01.473Z,2.70
2022-08-05T14:46:28.554Z,2.60
2022-08-05T14:49:06.962Z,2.60
2022-08-05T14:51:42.425Z,2.50
2022-08-05T14:54:28.349Z,3.10
2022-08-05T14:56:58.349Z,2.60
2022-08-05T14:59:29.484Z,2.50
2022-08-05T15:02:03.295Z,2.40
2022-08-05T15:04:30.816Z,3.10
2022-08-05T15:06:59.616Z,2.40
2022-08-05T15:09:52.534Z,2.40
2022-08-05T15:12:16.827Z,2.90
2022-08-05T15:14:50.031Z,2.80
2022-08-05T15:17:47.709Z,2.80
2022-08-05T15:20:18.217Z,2.40
2022-08-05T15:22:52.152Z,2.10
2022-08-05T15:25:23.664Z,2.60
2022-08-05T15:28:09.270Z,2.20
2022-08-05T15:30:43.381Z,2.60
2022-08-05T15:33:10.938Z,2.50
2022-08-05T15:35:45.503Z,2.40
2022-08-05T15:38:34.020Z,2.60
2022-08-05T15:41:23.160Z,2.40
2022-08-05T15:43:48.540Z,2.50
2022-08-05T15:46:16.063Z,2.70
2022-08-05T15:48:52.511Z,2.70
2022-08-05T15:52:09.894Z,2.60
2022-08-05T15:54:17.025Z,2.50
2022-08-05T15:56:44.380Z,3.00
2022-08-05T15:59:19.851Z,2.80
2022-08-05T16:01:52.486Z,2.30
2022-08-05T16:04:25.489Z,2.80
2022-08-05T16:06:55.422Z,2.50
2022-08-05T16:09:24.470Z,2.80
2022-08-05T16:11:53.972Z,3.10
2022-08-05T16:14:25.047Z,2.80
2022-08-05T16:16:52.296Z,2.80
2022-08-05T16:20:03.145Z,2.20
2022-08-05T16:22:10.533Z,2.60
2022-08-05T16:24:40.962Z,2.70
2022-08-05T16:27:18.699Z,3.00
2022-08-05T16:29:51.032Z,3.00
2022-08-05T16:32:28.557Z,2.80
2022-08-05T16:34:56.798Z,3.10
2022-08-05T16:38:16.174Z,2.90
2022-08-05T16:40:24.817Z,4.70
2022-08-05T16:42:54.544Z,3.00
2022-08-05T16:46:05.867Z,3.10
2022-08-05T16:48:10.273Z,3.10
2022-08-05T16:50:37.887Z,2.80
2022-08-05T16:53:12.073Z,3.50
2022-08-05T16:55:49.935Z,3.10
2022-08-05T16:58:19.611Z,2.70
2022-08-05T17:00:49.523Z,3.00
2022-08-05T17:03:20.554Z,2.90
2022-08-05T17:05:53.692Z,2.70
2022-08-05T17:08:33.380Z,2.70
2022-08-05T17:11:12.820Z,3.00
2022-08-05T17:13:45.520Z,3.20
2022-08-05T17:16:29.799Z,3.10
2022-08-05T17:19:02.022Z,3.00
2022-08-05T17:21:35.713Z,3.20
2022-08-05T17:24:19.757Z,3.10
2022-08-05T17:26:55.424Z,4.00
2022-08-05T17:29:33.682Z,3.20
2022-08-05T17:32:16.785Z,3.00
2022-08-05T17:34:47.733Z,3.20
2022-08-05T17:37:39.824Z,2.90
2022-08-05T17:40:12.226Z,3.70
2022-08-05T17:42:41.664Z,6.80
2022-08-05T17:45:20.379Z,7.70
2022-08-05T17:47:54.102Z,4.20
2022-08-05T17:50:28.826Z,3.10
2022-08-05T17:53:01.691Z,3.80
2022-08-05T17:55:37.400Z,3.60
2022-08-05T17:58:12.390Z,3.10
2022-08-05T18:00:47.732Z,3.50
2022-08-05T18:03:59.231Z,3.90
2022-08-05T18:06:11.691Z,3.20
2022-08-05T18:08:46.090Z,3.20
2022-08-05T18:11:23.637Z,3.40
2022-08-05T18:13:53.869Z,3.80
2022-08-05T18:16:22.199Z,4.10
2022-08-05T18:18:50.163Z,4.00
2022-08-05T18:21:20.020Z,3.60
2022-08-05T18:23:53.937Z,3.70
2022-08-05T18:26:29.040Z,3.70
2022-08-05T18:28:57.967Z,4.40
2022-08-05T18:31:25.572Z,4.00
2022-08-05T18:34:00.711Z,4.30
2022-08-05T18:36:28.324Z,4.40
2022-08-05T18:38:56.400Z,5.10
2022-08-05T18:41:56.854Z,4.70
2022-08-05T18:44:12.804Z,4.40
2022-08-05T18:46:41.067Z,5.30
2022-08-05T18:49:30.943Z,5.70
2022-08-05T18:52:35.559Z,5.40
2022-08-05T18:55:06.221Z,4.50
2022-08-05T18:57:43.122Z,5.20
2022-08-05T19:00:20.476Z,5.60
2022-08-05T19:02:48.329Z,5.50
2022-08-05T19:06:05.884Z,5.90
2022-08-05T19:08:13.369Z,5.60
2022-08-05T19:10:41.232Z,5.20
2022-08-05T19:13:12.483Z,6.10
2022-08-05T19:16:00.012Z,5.80
2022-08-05T19:18:31.402Z,5.30
2022-08-05T19:21:00.390Z,5.90
2022-08-05T19:24:06.525Z,5.40
2022-08-05T19:26:17.459Z,5.00
2022-08-05T19:28:44.909Z,5.50
2022-08-05T19:31:17.904Z,5.50
2022-08-05T19:33:56.384Z,5.60
2022-08-05T19:36:26.202Z,5.80
2022-08-05T19:39:01.064Z,6.00
2022-08-05T19:41:58.064Z,5.40
2022-08-05T19:44:19.630Z,5.90
2022-08-05T19:46:50.154Z,5.80
2022-08-05T19:49:19.091Z,6.30
2022-08-05T19:52:08.546Z,5.70
2022-08-05T19:54:37.025Z,4.40
2022-08-05T19:57:09.540Z,4.20
2022-08-05T19:59:59.322Z,3.70
2022-08-05T20:02:27.686Z,4.00
2022-08-05T20:04:58.446Z,4.80
2022-08-05T20:07:48.309Z,4.30
2022-08-05T20:10:19.420Z,4.50
2022-08-05T20:12:50.431Z,4.40
2022-08-05T20:15:23.048Z,4.20
2022-08-05T20:18:10.569Z,4.10
2022-08-05T20:20:56.606Z,4.00
2022-08-05T20:23:39.270Z,4.10
2022-08-05T20:26:16.584Z,4.00
2022-08-05T20:28:51.491Z,4.40
2022-08-05T20:31:28.354Z,4.70
2022-08-05T20:34:05.321Z,4.40
2022-08-05T20:36:35.964Z,3.60
2022-08-05T20:39:06.702Z,4.30
2022-08-05T20:41:43.824Z,3.60
2022-08-05T20:44:29.222Z,4.20
2022-08-05T20:47:03.441Z,3.90
2022-08-05T20:49:37.767Z,4.30
2022-08-05T20:52:05.760Z,3.80
2022-08-05T20:54:43.092Z,4.20
2022-08-05T20:57:42.348Z,3.90
2022-08-05T21:00:20.869Z,4.00
2022-08-05T21:03:06.249Z,4.60
2022-08-05T21:05:47.955Z,3.90
2022-08-05T21:08:28.248Z,4.10
2022-08-05T21:11:11.995Z,3.90
2022-08-05T21:13:46.986Z,3.50
2022-08-05T21:16:30.478Z,3.80
2022-08-05T21:19:02.015Z,4.40
2022-08-05T21:21:38.794Z,4.10
2022-08-05T21:24:13.224Z,4.30
2022-08-05T21:26:41.644Z,3.70
2022-08-05T21:29:12.607Z,4.30
2022-08-05T21:31:44.518Z,4.60
2022-08-05T21:34:12.107Z,4.00
2022-08-05T21:36:39.738Z,3.90
2022-08-05T21:39:14.174Z,3.80
2022-08-05T21:41:52.623Z,4.10
2022-08-05T21:44:26.770Z,4.50
2022-08-05T21:46:57.910Z,4.30
2022-08-05T21:49:56.816Z,4.60
2022-08-05T21:52:15.763Z,4.30
2022-08-05T21:54:44.058Z,4.80
2022-08-05T21:57:33.830Z,4.30
2022-08-05T22:00:05.447Z,5.10
2022-08-05T22:02:40.244Z,4.50
2022-08-05T22:05:10.264Z,4.20
2022-08-05T22:07:39.757Z,4.50
2022-08-05T22:10:27.505Z,4.50
2022-08-05T22:12:58.845Z,4.80
2022-08-05T22:16:01.170Z,4.40
2022-08-05T22:18:25.587Z,3.70
2022-08-05T22:20:54.678Z,3.30
2022-08-05T22:24:01.241Z,3.90
2022-08-05T22:26:49.990Z,3.90
2022-08-05T22:29:18.862Z,3.50
2022-08-05T22:31:55.297Z,4.10
2022-08-05T22:34:28.626Z,3.40
2022-08-05T22:36:58.343Z,3.50
2022-08-05T22:39:33.371Z,3.60
2022-08-05T22:42:11.436Z,4.10
2022-08-05T22:44:42.480Z,4.60
2022-08-05T22:47:14.444Z,3.80
2022-08-05T22:50:21.869Z,4.20
2022-08-05T22:52:46.288Z,4.70
2022-08-05T22:55:18.374Z,4.00
2022-08-05T22:57:47.254Z,5.00
2022-08-05T23:00:18.346Z,4.20
2022-08-05T23:02:48.638Z,4.60
2022-08-05T23:05:16.824Z,4.60
2022-08-05T23:07:45.302Z,4.60
2022-08-05T23:10:19.904Z,5.10
2022-08-05T23:12:51.177Z,4.60
2022-08-05T23:15:22.212Z,4.50
2022-08-05T23:18:00.801Z,4.00
2022-08-05T23:20:31.583Z,4.60
2022-08-05T23:22:59.904Z,4.60
2022-08-05T23:25:53.008Z,4.30
2022-08-05T23:28:15.717Z,4.70
2022-08-05T23:30:53.220Z,5.10
2022-08-05T23:33:26.382Z,4.40
2022-08-05T23:36:10.280Z,4.60
2022-08-05T23:38:38.329Z,4.70
2022-08-05T23:41:05.963Z,4.90
2022-08-05T23:44:03.225Z,5.00
2022-08-05T23:46:22.126Z,5.30
2022-08-05T23:49:00.534Z,4.70
2022-08-05T23:51:55.493Z,6.00
2022-08-05T23:54:30.198Z,5.70
2022-08-05T23:57:03.471Z,5.40
2022-08-05T23:59:37.715Z,5.50
